Terminal Aerodrome Forecast
Issued by NWS Blacksburg, VA

Current Version | Previous Version | Text Only | Print | Product List | Glossary Off
Versions: 1 2 3 4 5 6 7 8 9 10 11 12 13 14

000
FTUS41 KRNK 152320
TAFBLF
TAF
KBLF 152320Z 1600/1624 30015G30KT P6SM -SHSN BKN012 OVC020
     FM160200 31014G25KT P6SM OVC015
     FM160600 32007KT P6SM SCT020
     FM161500 08007KT P6SM SKC=

USA.gov is the U.S. government's official web portal to all federal, state and local government web resources and services.